Time;durP1;ratioP1;P1;durP2;ratioP2;P2;SDS_P1;SDS_P2;PMS_P1;PMS_P2;Temp;Humidity;BMP_temperature;BMP_pressure;BME280_temperature;BME280_humidity;BME280_pressure;Samples;Min_cycle;Max_cycle;Signal;HPM_P1;HPM_P2
2021/12/06 00:00:27;;;;;;;36.78;21.65;;;4.30;99.90;;;;;;5075987;28;20198;-85
2021/12/06 00:02:56;;;;;;;37.58;22.35;;;4.20;99.90;;;;;;5070557;28;20241;-85
2021/12/06 00:05:27;;;;;;;40.78;23.00;;;4.20;99.90;;;;;;5068972;28;20223;-86
2021/12/06 00:07:54;;;;;;;37.58;21.80;;;4.10;99.90;;;;;;5070773;28;20278;-86
2021/12/06 00:10:22;;;;;;;31.17;20.60;;;4.20;99.90;;;;;;5068761;28;20640;-86
2021/12/06 00:12:49;;;;;;;35.88;22.50;;;4.30;99.90;;;;;;5064247;28;20253;-87
2021/12/06 00:15:16;;;;;;;35.97;19.90;;;4.20;99.90;;;;;;5068973;28;20237;-86
2021/12/06 00:17:43;;;;;;;35.63;20.95;;;4.20;99.90;;;;;;5066223;28;20202;-85
2021/12/06 00:20:13;;;;;;;36.75;24.33;;;4.10;99.90;;;;;;5067999;28;20200;-86
2021/12/06 00:22:42;;;;;;;34.83;20.88;;;4.10;99.90;;;;;;5053953;28;20311;-85
2021/12/06 00:25:10;;;;;;;43.78;22.88;;;4.00;99.90;;;;;;5067638;28;20227;-86
2021/12/06 00:27:39;;;;;;;41.35;23.25;;;4.00;99.90;;;;;;5061395;28;20223;-85
2021/12/06 00:30:10;;;;;;;42.33;23.17;;;4.00;99.90;;;;;;5065770;28;20638;-86
2021/12/06 00:32:38;;;;;;;37.67;23.08;;;4.00;99.90;;;;;;5066565;28;20254;-85
2021/12/06 00:35:06;;;;;;;37.45;21.85;;;4.10;99.90;;;;;;5058120;28;20234;-85
2021/12/06 00:37:41;;;;;;;42.88;21.35;;;4.10;99.90;;;;;;5064563;28;20210;-86
2021/12/06 00:40:12;;;;;;;43.00;24.13;;;4.20;99.90;;;;;;5064820;28;20251;-86
2021/12/06 00:42:39;;;;;;;35.92;22.77;;;4.20;99.90;;;;;;5059015;28;20227;-86
2021/12/06 00:45:07;;;;;;;40.50;23.20;;;4.10;99.90;;;;;;5065427;28;20281;-86
2021/12/06 00:47:34;;;;;;;38.35;22.42;;;4.10;99.90;;;;;;5057539;28;20267;-86
2021/12/06 00:50:01;;;;;;;36.60;23.83;;;4.20;99.90;;;;;;5051735;28;20204;-85
2021/12/06 00:52:28;;;;;;;36.42;21.40;;;4.20;99.90;;;;;;5062278;28;20677;-85
2021/12/06 00:54:55;;;;;;;43.60;25.00;;;4.20;99.90;;;;;;5060583;28;20196;-86
2021/12/06 00:57:23;;;;;;;43.00;25.08;;;4.20;99.90;;;;;;5061422;28;20239;-86
2021/12/06 00:59:50;;;;;;;39.40;23.20;;;4.20;99.90;;;;;;5072760;28;20223;-84
2021/12/06 01:02:18;;;;;;;35.95;20.95;;;4.10;99.90;;;;;;5079508;28;20258;-84
2021/12/06 01:04:47;;;;;;;37.25;21.00;;;4.10;99.90;;;;;;5079627;28;20218;-85
2021/12/06 01:07:15;;;;;;;35.33;21.95;;;4.10;99.90;;;;;;5079613;28;20211;-84
2021/12/06 01:09:49;;;;;;;34.90;22.15;;;4.00;99.90;;;;;;5055544;28;20196;-86
2021/12/06 01:12:17;;;;;;;43.25;22.02;;;4.10;99.90;;;;;;5062658;28;20230;-85
2021/12/06 01:14:45;;;;;;;42.70;24.15;;;4.10;99.90;;;;;;5053868;28;20221;-86
2021/12/06 01:17:13;;;;;;;44.42;23.65;;;4.10;99.90;;;;;;5061301;28;20215;-86
2021/12/06 01:19:40;;;;;;;37.97;24.05;;;4.20;99.90;;;;;;5061716;28;20203;-86
2021/12/06 01:22:19;;;;;;;37.58;23.13;;;4.30;99.90;;;;;;5068510;28;20223;-86
2021/12/06 01:24:52;;;;;;;41.35;24.25;;;4.20;99.90;;;;;;5061899;28;20277;-86
2021/12/06 01:27:42;;;;;;;40.22;22.92;;;4.10;99.90;;;;;;5063207;28;20286;-86
2021/12/06 01:30:30;;;;;;;41.60;26.48;;;4.20;99.90;;;;;;5069828;28;20200;-87
2021/12/06 01:33:29;;;;;;;36.58;23.15;;;4.30;99.90;;;;;;5058638;28;20371;-86
2021/12/06 01:41:26;;;;;;;40.70;24.25;;;4.10;99.90;;;;;;5068069;28;20563;-87
2021/12/06 01:44:06;;;;;;;43.25;23.85;;;4.20;99.90;;;;;;5060726;28;20226;-86
2021/12/06 01:46:36;;;;;;;41.78;23.70;;;4.20;99.90;;;;;;5068021;28;20266;-86
2021/12/06 01:49:04;;;;;;;42.50;23.20;;;4.10;99.90;;;;;;5055683;28;20234;-85
2021/12/06 01:51:31;;;;;;;43.53;24.98;;;4.00;99.90;;;;;;5059851;28;20203;-86
2021/12/06 01:53:58;;;;;;;52.33;25.95;;;4.10;99.90;;;;;;5062007;28;20215;-86
2021/12/06 01:56:25;;;;;;;44.75;24.10;;;4.00;99.90;;;;;;5079945;28;20207;-86
2021/12/06 01:58:53;;;;;;;38.17;24.23;;;4.10;99.90;;;;;;5078134;28;20206;-86
2021/12/06 02:01:21;;;;;;;53.95;26.50;;;4.10;99.90;;;;;;5078146;28;20195;-86
2021/12/06 02:03:49;;;;;;;44.38;24.83;;;4.00;99.90;;;;;;5073724;28;20237;-85
2021/12/06 02:06:16;;;;;;;41.95;27.27;;;4.20;99.90;;;;;;5073657;28;20239;-86
2021/12/06 02:08:43;;;;;;;44.65;24.83;;;3.90;99.90;;;;;;5074108;28;20192;-86
2021/12/06 02:11:11;;;;;;;44.28;27.23;;;4.00;99.90;;;;;;5073532;28;20214;-85
2021/12/06 02:13:45;;;;;;;45.78;24.90;;;3.90;99.90;;;;;;5087512;28;20254;-86
2021/12/06 02:16:13;;;;;;;54.05;25.15;;;3.80;99.90;;;;;;5073715;28;20200;-86
2021/12/06 02:18:45;;;;;;;43.08;24.33;;;3.80;99.90;;;;;;5078222;28;20225;-85
2021/12/06 02:21:18;;;;;;;50.58;25.08;;;3.90;99.90;;;;;;5075784;28;20211;-86
2021/12/06 02:23:45;;;;;;;44.80;26.27;;;4.00;99.90;;;;;;5073587;28;20232;-86
2021/12/06 02:26:13;;;;;;;44.97;25.92;;;4.00;99.90;;;;;;5074314;28;20216;-86
2021/12/06 02:28:41;;;;;;;40.80;23.75;;;4.00;99.90;;;;;;5065866;28;20222;-86
2021/12/06 02:31:09;;;;;;;47.50;25.10;;;4.00;99.90;;;;;;5075316;28;20210;-85
2021/12/06 02:33:36;;;;;;;38.92;22.10;;;4.10;99.90;;;;;;5061870;28;20220;-87
2021/12/06 02:36:04;;;;;;;42.78;25.42;;;4.00;99.90;;;;;;5069058;28;20234;-86
2021/12/06 02:38:32;;;;;;;46.65;25.23;;;4.10;99.90;;;;;;5063715;28;20218;-86
2021/12/06 02:40:59;;;;;;;45.78;25.65;;;4.20;99.90;;;;;;5069235;28;20305;-83
2021/12/06 02:43:26;;;;;;;45.72;26.40;;;4.20;99.90;;;;;;5066257;28;20228;-84
2021/12/06 02:45:53;;;;;;;45.33;24.95;;;4.20;99.90;;;;;;5067256;28;20194;-85
2021/12/06 02:48:20;;;;;;;41.88;24.08;;;4.20;99.90;;;;;;5069499;28;20208;-83
2021/12/06 02:50:51;;;;;;;43.35;23.05;;;4.20;99.90;;;;;;5072643;28;20199;-84
2021/12/06 02:53:20;;;;;;;46.38;23.50;;;4.20;99.90;;;;;;5079419;28;20258;-84
2021/12/06 02:55:52;;;;;;;44.78;25.38;;;4.10;99.90;;;;;;5078053;28;20191;-85
2021/12/06 02:58:43;;;;;;;53.25;26.15;;;4.10;99.90;;;;;;5079183;28;20207;-85
2021/12/06 03:01:11;;;;;;;41.15;23.45;;;4.10;99.90;;;;;;5076163;28;20207;-84
2021/12/06 03:03:39;;;;;;;41.92;24.33;;;4.10;99.90;;;;;;5072966;28;20219;-84
2021/12/06 03:06:09;;;;;;;40.72;23.70;;;4.10;99.90;;;;;;5088416;28;20207;-83
2021/12/06 03:08:39;;;;;;;40.60;25.23;;;4.10;99.90;;;;;;5073260;28;20224;-84
2021/12/06 03:11:11;;;;;;;40.67;25.92;;;4.00;99.90;;;;;;5067576;28;20196;-83
2021/12/06 03:13:37;;;;;;;39.58;23.52;;;4.00;99.90;;;;;;5077314;28;20219;-83
2021/12/06 03:16:05;;;;;;;46.85;25.48;;;4.10;99.90;;;;;;5077196;28;20179;-83
2021/12/06 03:18:33;;;;;;;43.28;26.20;;;4.10;99.90;;;;;;5072938;28;20203;-84
2021/12/06 03:20:59;;;;;;;40.20;24.33;;;3.90;99.90;;;;;;5063981;28;20230;-84
2021/12/06 03:23:27;;;;;;;36.53;23.92;;;3.90;99.90;;;;;;5063545;28;20219;-84
2021/12/06 03:25:54;;;;;;;38.33;22.80;;;3.90;99.90;;;;;;5069116;28;20265;-84
2021/12/06 03:28:22;;;;;;;35.70;21.23;;;3.80;99.90;;;;;;5068789;28;20213;-83
2021/12/06 03:30:49;;;;;;;38.40;24.60;;;3.80;99.90;;;;;;5079270;28;20195;-84
2021/12/06 03:33:16;;;;;;;42.42;26.50;;;3.70;99.90;;;;;;5076859;28;20232;-84
2021/12/06 03:35:43;;;;;;;41.63;24.90;;;3.70;99.90;;;;;;5077159;28;20210;-85
2021/12/06 03:38:11;;;;;;;36.38;22.98;;;3.70;99.90;;;;;;5091886;28;20210;-85
2021/12/06 03:40:38;;;;;;;40.85;25.75;;;3.80;99.90;;;;;;5098438;28;20229;-85
2021/12/06 03:43:05;;;;;;;37.25;22.35;;;3.60;99.90;;;;;;5098088;28;20230;-84
2021/12/06 03:45:37;;;;;;;35.05;21.65;;;3.80;99.90;;;;;;5097814;28;20222;-85
2021/12/06 03:48:05;;;;;;;35.38;21.98;;;3.70;99.90;;;;;;5098149;28;20167;-86
2021/12/06 03:50:32;;;;;;;40.17;24.13;;;3.70;99.90;;;;;;5097912;28;20183;-86
2021/12/06 03:52:59;;;;;;;42.33;24.98;;;3.70;99.90;;;;;;5097713;28;20239;-86
2021/12/06 03:55:26;;;;;;;42.65;24.75;;;3.70;99.90;;;;;;5078728;28;20195;-86
2021/12/06 03:57:53;;;;;;;37.88;23.45;;;3.70;99.90;;;;;;5087126;28;20288;-84
2021/12/06 04:00:20;;;;;;;37.85;24.88;;;3.70;99.90;;;;;;5084783;28;20241;-87
2021/12/06 04:02:48;;;;;;;42.42;24.38;;;3.70;99.90;;;;;;5082076;28;20230;-85
2021/12/06 04:05:16;;;;;;;40.45;23.10;;;3.70;99.90;;;;;;5080288;28;20253;-84
2021/12/06 04:07:43;;;;;;;35.85;25.77;;;3.70;99.90;;;;;;5080869;28;20223;-84
2021/12/06 04:10:11;;;;;;;36.45;22.55;;;3.90;99.90;;;;;;5081051;28;20202;-85
2021/12/06 04:12:39;;;;;;;42.05;25.27;;;3.70;99.90;;;;;;5081502;28;20234;-85
2021/12/06 04:15:08;;;;;;;38.75;24.75;;;3.70;99.90;;;;;;5079764;28;20203;-85
2021/12/06 04:17:35;;;;;;;36.88;24.30;;;3.70;99.90;;;;;;5079527;28;20257;-86
2021/12/06 04:20:05;;;;;;;39.67;24.48;;;3.50;99.90;;;;;;5084606;28;20227;-86
2021/12/06 04:22:32;;;;;;;42.72;26.15;;;3.50;99.90;;;;;;5079639;28;20249;-86
2021/12/06 04:25:02;;;;;;;40.08;23.95;;;3.50;99.90;;;;;;5061323;28;20227;-85
2021/12/06 04:27:31;;;;;;;43.35;24.63;;;3.50;99.90;;;;;;5059562;28;20720;-85
2021/12/06 04:29:58;;;;;;;39.00;22.75;;;3.60;99.90;;;;;;5063056;28;20234;-85
2021/12/06 04:32:26;;;;;;;41.22;24.27;;;3.70;99.90;;;;;;5062939;28;20223;-86
2021/12/06 04:34:53;;;;;;;39.72;28.40;;;3.60;99.90;;;;;;5063591;28;20211;-85
2021/12/06 04:37:21;;;;;;;40.95;23.55;;;3.60;99.90;;;;;;5067666;28;20242;-84
2021/12/06 04:39:48;;;;;;;47.58;27.63;;;3.60;99.90;;;;;;5075084;28;20204;-84
2021/12/06 04:42:18;;;;;;;40.67;27.70;;;3.70;99.90;;;;;;5075839;28;20247;-83
2021/12/06 04:44:45;;;;;;;40.35;24.77;;;3.50;99.90;;;;;;5076072;28;20208;-85
2021/12/06 04:47:12;;;;;;;43.28;28.50;;;3.50;99.90;;;;;;5065283;28;20663;-86
2021/12/06 04:49:39;;;;;;;43.22;25.42;;;3.50;99.90;;;;;;5066643;28;20304;-86
2021/12/06 04:52:09;;;;;;;41.97;25.65;;;3.50;99.90;;;;;;5072305;28;20823;-84
2021/12/06 04:54:41;;;;;;;43.13;26.67;;;3.50;99.90;;;;;;5079546;28;20210;-85
2021/12/06 04:57:15;;;;;;;40.55;25.30;;;3.60;99.90;;;;;;5077076;28;20202;-87
2021/12/06 04:59:45;;;;;;;40.10;24.35;;;3.50;99.90;;;;;;5067967;28;20622;-85
2021/12/06 05:02:16;;;;;;;44.80;26.58;;;3.50;99.90;;;;;;5062243;28;20238;-87
2021/12/06 05:04:47;;;;;;;36.58;24.85;;;3.50;99.90;;;;;;5055969;28;20203;-87
2021/12/06 05:07:19;;;;;;;41.30;26.00;;;3.50;99.90;;;;;;5059947;28;20195;-83
2021/12/06 05:09:48;;;;;;;43.47;25.70;;;3.50;99.90;;;;;;5064883;28;20199;-84
2021/12/06 05:12:18;;;;;;;43.63;26.35;;;3.50;99.90;;;;;;5065787;28;20230;-85
2021/12/06 05:14:45;;;;;;;39.03;26.00;;;3.40;99.90;;;;;;5064009;28;20202;-86
2021/12/06 05:17:12;;;;;;;40.88;25.13;;;3.40;99.90;;;;;;5066502;28;20274;-88
2021/12/06 05:19:39;;;;;;;46.70;28.92;;;3.30;99.90;;;;;;5067181;28;20239;-85
2021/12/06 05:22:06;;;;;;;46.90;29.50;;;3.30;99.90;;;;;;5066394;28;20230;-86
2021/12/06 05:24:34;;;;;;;44.95;28.55;;;3.30;99.90;;;;;;5067641;28;20222;-85
2021/12/06 05:27:04;;;;;;;47.50;27.40;;;3.40;99.90;;;;;;5071625;28;20225;-87
2021/12/06 05:29:32;;;;;;;44.97;26.38;;;3.40;99.90;;;;;;5062681;28;20234;-86
2021/12/06 05:32:00;;;;;;;40.47;26.15;;;3.40;99.90;;;;;;5067309;28;20719;-85
2021/12/06 05:34:38;;;;;;;45.95;28.05;;;3.40;99.90;;;;;;5060341;28;20266;-86
2021/12/06 05:37:11;;;;;;;45.17;26.10;;;3.50;99.90;;;;;;5060537;28;20298;-84
2021/12/06 05:39:39;;;;;;;44.28;27.45;;;3.40;99.90;;;;;;5066521;28;20262;-85
2021/12/06 05:42:10;;;;;;;44.20;26.35;;;3.50;99.90;;;;;;5074124;28;20256;-86
2021/12/06 05:44:37;;;;;;;42.60;26.23;;;3.60;99.90;;;;;;5071947;28;20270;-87
2021/12/06 05:47:06;;;;;;;43.85;26.65;;;3.50;99.90;;;;;;5068866;28;20287;-85
2021/12/06 05:49:34;;;;;;;48.65;28.10;;;3.50;99.90;;;;;;5066421;28;20198;-83
2021/12/06 05:52:01;;;;;;;41.83;25.38;;;3.50;99.90;;;;;;5086987;28;20234;-84
2021/12/06 05:54:29;;;;;;;39.83;27.50;;;3.50;99.90;;;;;;5077310;28;20195;-86
2021/12/06 05:56:56;;;;;;;45.20;24.85;;;3.60;99.90;;;;;;5066425;28;20218;-86
2021/12/06 05:59:25;;;;;;;39.28;24.23;;;3.50;99.90;;;;;;5065065;28;20210;-87
2021/12/06 06:01:54;;;;;;;41.33;28.05;;;3.40;99.90;;;;;;5065816;28;20253;-87
2021/12/06 06:04:21;;;;;;;46.85;28.25;;;3.50;99.90;;;;;;5060937;28;20549;-86
2021/12/06 06:06:52;;;;;;;41.83;23.85;;;3.40;99.90;;;;;;5062963;28;20203;-88
2021/12/06 06:09:21;;;;;;;46.88;27.90;;;3.40;99.90;;;;;;5060759;28;20200;-85
2021/12/06 06:11:48;;;;;;;48.33;28.08;;;3.40;99.90;;;;;;5062752;28;20213;-87
2021/12/06 06:14:17;;;;;;;50.00;29.50;;;3.40;99.90;;;;;;5062821;28;20204;-86
2021/12/06 06:17:09;;;;;;;48.65;27.50;;;3.50;99.90;;;;;;5065474;28;20242;-85
2021/12/06 06:19:42;;;;;;;48.80;28.13;;;3.50;99.90;;;;;;5051333;28;20239;-85
2021/12/06 06:22:11;;;;;;;41.90;27.45;;;3.30;99.90;;;;;;5074828;28;20280;-86
2021/12/06 06:24:38;;;;;;;50.63;27.65;;;3.60;99.90;;;;;;5064530;28;20195;-87
2021/12/06 06:27:09;;;;;;;40.22;26.05;;;3.50;99.90;;;;;;5061329;28;20293;-89
2021/12/06 06:29:42;;;;;;;48.15;28.35;;;3.50;99.90;;;;;;5065970;28;20206;-87
2021/12/06 06:32:13;;;;;;;50.13;28.33;;;3.50;99.90;;;;;;5063848;28;20235;-86
2021/12/06 06:34:40;;;;;;;43.92;28.20;;;3.50;99.90;;;;;;5070503;28;20211;-87
2021/12/06 06:37:07;;;;;;;47.63;27.13;;;3.60;99.90;;;;;;5061698;28;20223;-84
2021/12/06 06:39:34;;;;;;;50.13;28.45;;;3.60;99.90;;;;;;5064238;28;20210;-85
2021/12/06 06:42:02;;;;;;;45.33;28.75;;;3.60;99.90;;;;;;5072344;28;20369;-85
2021/12/06 06:44:30;;;;;;;47.53;27.67;;;3.50;99.90;;;;;;5064830;28;20200;-81
2021/12/06 06:47:02;;;;;;;45.10;27.10;;;3.70;99.90;;;;;;5063194;28;20230;-84
2021/12/06 06:49:46;;;;;;;43.17;27.20;;;3.60;99.90;;;;;;5066197;28;20231;-85
2021/12/06 06:52:24;;;;;;;49.25;28.58;;;3.60;99.90;;;;;;5062549;28;20231;-84
2021/12/06 06:54:51;;;;;;;44.47;27.67;;;3.60;99.90;;;;;;5045313;28;20267;-85
2021/12/06 06:57:18;;;;;;;46.45;28.83;;;3.60;99.90;;;;;;5066644;28;20200;-85
2021/12/06 06:59:54;;;;;;;49.85;27.40;;;3.60;99.90;;;;;;5061258;28;20339;-84
2021/12/06 07:02:27;;;;;;;50.97;28.80;;;3.60;99.90;;;;;;5064915;28;20227;-83
2021/12/06 07:07:36;;;;;;;57.72;30.73;;;3.60;99.90;;;;;;5070901;28;20239;-84
2021/12/06 07:10:05;;;;;;;51.55;30.80;;;3.70;99.90;;;;;;5074575;28;20454;-83
2021/12/06 07:12:35;;;;;;;59.60;30.83;;;3.60;99.90;;;;;;5069735;28;20234;-81
2021/12/06 07:15:23;;;;;;;49.45;28.23;;;3.50;99.90;;;;;;5062344;28;20213;-85
2021/12/06 07:17:51;;;;;;;54.60;32.53;;;3.50;99.90;;;;;;5064017;28;20324;-84
2021/12/06 07:20:20;;;;;;;46.33;27.85;;;3.40;99.90;;;;;;5062761;28;20199;-84
2021/12/06 07:22:49;;;;;;;61.72;31.92;;;3.30;99.90;;;;;;5060128;28;20223;-84
2021/12/06 07:25:18;;;;;;;53.58;34.15;;;3.30;99.90;;;;;;5061219;28;20293;-84
2021/12/06 07:27:45;;;;;;;59.13;31.23;;;3.50;99.90;;;;;;5058736;28;20309;-83
2021/12/06 07:30:14;;;;;;;54.28;30.88;;;3.40;99.90;;;;;;5075576;28;20231;-84
2021/12/06 07:32:42;;;;;;;61.58;34.55;;;3.40;99.90;;;;;;5060283;28;20255;-83
2021/12/06 07:35:16;;;;;;;60.60;33.35;;;3.50;99.90;;;;;;5060644;28;20270;-86
2021/12/06 07:37:45;;;;;;;60.92;31.40;;;3.30;99.90;;;;;;5056583;28;20618;-87
2021/12/06 07:40:14;;;;;;;49.97;32.38;;;3.20;99.90;;;;;;5066626;28;20230;-82
2021/12/06 07:42:42;;;;;;;53.00;34.72;;;3.40;99.90;;;;;;5073777;28;20211;-82
2021/12/06 07:45:14;;;;;;;61.58;34.85;;;3.50;99.90;;;;;;5074231;28;20187;-83
2021/12/06 07:47:41;;;;;;;59.85;33.28;;;3.50;99.90;;;;;;5047340;28;20291;-85
2021/12/06 07:50:11;;;;;;;57.15;31.90;;;3.60;99.90;;;;;;5067286;28;20290;-84
2021/12/06 07:52:38;;;;;;;51.65;29.75;;;3.30;99.90;;;;;;5066844;28;20220;-86
2021/12/06 07:55:10;;;;;;;55.85;31.00;;;3.50;99.90;;;;;;5061084;28;20234;-83
2021/12/06 07:57:38;;;;;;;68.60;35.30;;;3.50;99.90;;;;;;5061007;28;20196;-84
2021/12/06 08:00:09;;;;;;;56.92;31.88;;;3.80;99.90;;;;;;5058608;28;20234;-85
2021/12/06 08:02:36;;;;;;;56.55;31.02;;;3.70;99.90;;;;;;5062765;28;20226;-86
2021/12/06 08:07:46;;;;;;;47.55;28.58;;;3.70;99.90;;;;;;5067412;28;20214;-84
2021/12/06 08:10:15;;;;;;;51.17;28.08;;;3.60;99.90;;;;;;5070675;28;20203;-86
2021/12/06 08:12:42;;;;;;;49.40;29.00;;;3.60;99.90;;;;;;5068767;28;20222;-86
2021/12/06 08:15:10;;;;;;;49.83;28.20;;;3.50;99.90;;;;;;5076900;28;20600;-84
2021/12/06 08:17:37;;;;;;;47.72;28.38;;;3.50;99.90;;;;;;5077654;28;20561;-85
2021/12/06 08:20:07;;;;;;;46.75;28.80;;;3.60;99.90;;;;;;5077590;28;20186;-83
2021/12/06 08:22:36;;;;;;;56.63;29.17;;;3.60;99.90;;;;;;5070109;28;20723;-85
2021/12/06 08:25:04;;;;;;;55.92;28.65;;;3.70;99.90;;;;;;5067203;28;20272;-85
2021/12/06 08:27:32;;;;;;;51.30;28.85;;;3.60;99.90;;;;;;5065758;28;20261;-85
2021/12/06 08:29:59;;;;;;;44.70;26.65;;;3.60;99.90;;;;;;5067708;28;20275;-85
2021/12/06 08:32:27;;;;;;;53.95;29.48;;;3.60;99.90;;;;;;5070744;28;20255;-85
2021/12/06 08:34:53;;;;;;;47.35;26.63;;;3.50;99.90;;;;;;5069468;28;20255;-86
2021/12/06 08:37:49;;;;;;;45.92;26.10;;;3.60;99.90;;;;;;5065634;28;20290;-87
2021/12/06 08:40:18;;;;;;;49.63;29.67;;;3.60;99.90;;;;;;5063172;28;20206;-87
2021/12/06 08:42:46;;;;;;;49.78;28.67;;;3.70;99.90;;;;;;5074156;28;20291;-84
2021/12/06 08:45:14;;;;;;;51.90;29.05;;;3.50;99.90;;;;;;5055243;28;20207;-86
2021/12/06 08:47:42;;;;;;;53.08;28.45;;;3.50;99.90;;;;;;5059192;28;20235;-85
2021/12/06 08:50:12;;;;;;;52.78;29.65;;;3.50;99.90;;;;;;5065478;28;20282;-86
2021/12/06 08:52:39;;;;;;;60.33;29.67;;;3.50;99.90;;;;;;5055385;28;20223;-86
2021/12/06 08:55:08;;;;;;;59.20;33.95;;;3.60;99.90;;;;;;5069475;28;20207;-87
2021/12/06 08:57:50;;;;;;;53.03;31.33;;;3.40;99.90;;;;;;5067822;28;20211;-87
2021/12/06 09:00:20;;;;;;;52.85;33.05;;;3.70;99.90;;;;;;5060358;28;20211;-85
2021/12/06 09:02:48;;;;;;;55.20;28.95;;;3.70;99.90;;;;;;5070836;28;20251;-85
2021/12/06 09:05:18;;;;;;;49.53;29.48;;;3.70;99.90;;;;;;5061446;28;20202;-84
2021/12/06 09:07:49;;;;;;;50.75;29.83;;;3.70;99.90;;;;;;5063588;28;20224;-84
2021/12/06 09:10:16;;;;;;;56.55;30.95;;;3.70;99.90;;;;;;5063854;28;20235;-86
2021/12/06 09:12:43;;;;;;;49.22;29.65;;;3.80;99.90;;;;;;5064874;28;20267;-83
2021/12/06 09:15:16;;;;;;;50.80;27.80;;;3.80;99.90;;;;;;5061693;28;20310;-83
2021/12/06 09:17:43;;;;;;;45.45;29.88;;;3.90;99.90;;;;;;5057198;28;20234;-86
2021/12/06 09:20:13;;;;;;;48.97;28.85;;;3.90;99.90;;;;;;5066282;28;20239;-86
2021/12/06 09:22:43;;;;;;;50.47;30.45;;;3.90;99.90;;;;;;5064914;28;20235;-84
2021/12/06 09:25:11;;;;;;;54.25;28.98;;;3.90;99.90;;;;;;5067092;28;20219;-87
2021/12/06 09:27:39;;;;;;;52.97;29.48;;;4.00;99.90;;;;;;5069624;28;20216;-85
2021/12/06 09:30:09;;;;;;;50.67;28.05;;;3.90;99.90;;;;;;5069370;28;20235;-85
2021/12/06 09:32:40;;;;;;;60.63;30.40;;;4.00;99.90;;;;;;5066126;28;20247;-85
2021/12/06 09:35:10;;;;;;;55.65;29.67;;;4.00;99.90;;;;;;5066140;28;20656;-84
2021/12/06 09:37:39;;;;;;;64.32;35.28;;;4.10;99.90;;;;;;5063201;28;20200;-84
2021/12/06 09:40:08;;;;;;;49.28;28.25;;;4.20;99.90;;;;;;5080568;28;20262;-84
2021/12/06 09:42:37;;;;;;;51.90;28.55;;;4.10;99.90;;;;;;5070246;28;20222;-85
2021/12/06 09:45:05;;;;;;;56.35;29.70;;;3.80;99.90;;;;;;5088478;28;20219;-84
2021/12/06 09:47:33;;;;;;;58.05;31.75;;;4.00;99.90;;;;;;5076318;28;20266;-81
2021/12/06 09:50:02;;;;;;;50.72;29.67;;;4.10;99.90;;;;;;5076445;28;20188;-83
2021/12/06 09:52:29;;;;;;;50.60;28.40;;;4.00;99.90;;;;;;5075759;28;20214;-82
2021/12/06 09:54:58;;;;;;;48.83;29.35;;;4.00;99.90;;;;;;5057920;22;20335;-73
2021/12/06 09:57:25;;;;;;;49.50;26.17;;;4.00;99.90;;;;;;5039786;28;20196;-73
2021/12/06 09:59:52;;;;;;;51.13;27.70;;;4.00;99.90;;;;;;5034539;28;20394;-73
2021/12/06 10:02:21;;;;;;;48.63;30.67;;;4.00;99.90;;;;;;5034379;28;20203;-74
2021/12/06 10:04:54;;;;;;;52.00;29.05;;;4.10;99.90;;;;;;5034980;28;20197;-74
2021/12/06 10:07:25;;;;;;;46.63;27.17;;;4.10;99.90;;;;;;5032807;28;20588;-74
2021/12/06 10:09:53;;;;;;;49.35;25.83;;;4.10;99.90;;;;;;5030758;28;20700;-74
2021/12/06 10:12:22;;;;;;;44.95;25.85;;;4.30;99.90;;;;;;5029243;28;20208;-74
2021/12/06 10:14:52;;;;;;;49.70;26.65;;;4.10;99.90;;;;;;5033567;28;20209;-74
2021/12/06 10:17:20;;;;;;;49.58;29.40;;;4.20;99.90;;;;;;5036895;28;20301;-74
2021/12/06 10:19:49;;;;;;;46.83;28.48;;;4.10;99.90;;;;;;5031750;28;20264;-74
2021/12/06 10:22:17;;;;;;;56.10;29.52;;;4.10;99.90;;;;;;5032275;28;20246;-74
2021/12/06 10:24:54;;;;;;;51.13;28.42;;;4.10;99.90;;;;;;5027801;28;20673;-74
2021/12/06 10:27:22;;;;;;;48.42;27.73;;;4.10;99.90;;;;;;5030594;28;20310;-74
2021/12/06 10:29:53;;;;;;;54.85;28.58;;;4.20;99.90;;;;;;5034106;28;20270;-75
2021/12/06 10:32:22;;;;;;;45.60;25.67;;;4.20;99.90;;;;;;5027139;28;20303;-74
2021/12/06 10:34:54;;;;;;;48.72;25.30;;;4.20;99.90;;;;;;5027013;28;20255;-74
2021/12/06 10:37:33;;;;;;;52.83;28.52;;;4.20;99.90;;;;;;5025313;28;20271;-74
2021/12/06 10:40:05;;;;;;;51.90;25.50;;;4.10;99.90;;;;;;5030796;28;20267;-74
2021/12/06 10:42:35;;;;;;;45.55;29.23;;;4.10;99.90;;;;;;5031764;28;20201;-74
2021/12/06 10:45:08;;;;;;;49.05;28.52;;;4.20;99.90;;;;;;5030897;28;20204;-74
2021/12/06 10:47:36;;;;;;;51.00;29.67;;;4.20;99.90;;;;;;5028479;28;20603;-74
2021/12/06 10:50:16;;;;;;;47.47;27.60;;;4.10;99.90;;;;;;5034973;28;20585;-74
2021/12/06 10:52:51;;;;;;;44.42;25.00;;;4.20;99.90;;;;;;5028959;28;20269;-74
2021/12/06 10:55:21;;;;;;;44.58;26.30;;;4.10;99.90;;;;;;5032483;28;20721;-74
2021/12/06 10:57:50;;;;;;;42.35;25.60;;;4.10;99.90;;;;;;5027589;28;20197;-74
2021/12/06 11:00:39;;;;;;;47.88;28.10;;;4.10;99.90;;;;;;5021444;28;20308;-74
2021/12/06 11:03:17;;;;;;;46.45;25.40;;;4.20;99.90;;;;;;5014750;28;20209;-74
2021/12/06 11:05:45;;;;;;;50.75;24.95;;;4.20;99.90;;;;;;5020171;28;20235;-74
2021/12/06 11:08:14;;;;;;;46.63;27.38;;;4.20;99.90;;;;;;5034530;28;20634;-74
2021/12/06 11:10:47;;;;;;;43.70;26.23;;;4.20;99.90;;;;;;5037593;28;20233;-74
2021/12/06 11:13:17;;;;;;;45.78;25.63;;;4.20;99.90;;;;;;5019745;28;20263;-73
2021/12/06 11:16:13;;;;;;;49.17;25.48;;;4.30;99.90;;;;;;5033462;28;20201;-74
2021/12/06 11:18:52;;;;;;;47.85;26.30;;;4.40;99.90;;;;;;4971398;28;20224;-74
2021/12/06 11:21:24;;;;;;;46.42;26.75;;;4.40;99.90;;;;;;5023919;28;20570;-73
2021/12/06 11:24:00;;;;;;;45.65;27.20;;;4.30;99.90;;;;;;5026619;28;20196;-73
2021/12/06 11:26:29;;;;;;;45.65;25.60;;;4.30;99.90;;;;;;5032438;28;20662;-73
2021/12/06 11:28:56;;;;;;;51.83;27.80;;;4.30;99.90;;;;;;5027611;28;20323;-74
2021/12/06 11:31:23;;;;;;;43.08;25.27;;;4.30;99.90;;;;;;5029267;28;20540;-74
2021/12/06 11:33:59;;;;;;;51.58;28.67;;;4.30;99.90;;;;;;5030456;28;20204;-74
2021/12/06 11:36:27;;;;;;;48.80;32.00;;;4.30;99.90;;;;;;5030931;28;20520;-74
2021/12/06 11:39:00;;;;;;;50.05;26.38;;;4.40;99.90;;;;;;5030015;28;20200;-73
2021/12/06 11:41:29;;;;;;;52.88;29.05;;;4.40;99.90;;;;;;5022293;28;20225;-73
2021/12/06 11:43:58;;;;;;;43.72;27.08;;;4.40;99.90;;;;;;5022743;28;20675;-73
2021/12/06 11:46:31;;;;;;;50.85;27.25;;;4.30;99.90;;;;;;5024395;28;20231;-72
2021/12/06 11:48:58;;;;;;;42.78;25.40;;;4.40;99.90;;;;;;5019549;28;20253;-74
2021/12/06 11:51:27;;;;;;;48.50;27.88;;;4.40;99.90;;;;;;5023898;28;20223;-72
2021/12/06 11:53:56;;;;;;;46.63;27.38;;;4.30;99.90;;;;;;5024814;28;20311;-73
2021/12/06 11:56:26;;;;;;;44.03;24.40;;;4.40;99.90;;;;;;5027024;28;20220;-74
2021/12/06 11:58:57;;;;;;;47.38;27.80;;;4.30;99.90;;;;;;5029261;28;20722;-73
2021/12/06 12:01:27;;;;;;;47.78;26.98;;;4.30;99.90;;;;;;5031883;28;20307;-72
2021/12/06 12:03:56;;;;;;;45.95;25.58;;;4.30;99.90;;;;;;5024680;28;20288;-72
2021/12/06 12:06:27;;;;;;;36.78;24.65;;;4.20;99.90;;;;;;5020237;28;20609;-73
2021/12/06 12:09:10;;;;;;;49.28;24.95;;;4.30;99.90;;;;;;5026802;28;20303;-74
2021/12/06 12:12:00;;;;;;;44.65;25.05;;;4.30;99.90;;;;;;5021598;28;20308;-74
2021/12/06 12:14:33;;;;;;;45.92;23.17;;;4.20;99.90;;;;;;5011728;28;20222;-74
2021/12/06 12:17:03;;;;;;;44.53;25.60;;;4.20;99.90;;;;;;5021447;28;20237;-74
2021/12/06 12:19:30;;;;;;;47.55;24.85;;;4.30;99.90;;;;;;5020501;28;20278;-73
2021/12/06 12:21:57;;;;;;;54.50;27.45;;;4.30;99.90;;;;;;5021134;28;20228;-73
2021/12/06 12:24:24;;;;;;;45.10;25.13;;;4.40;99.90;;;;;;5028479;28;20705;-73
2021/12/06 12:26:59;;;;;;;46.25;24.58;;;4.40;99.90;;;;;;5029542;28;20240;-74
2021/12/06 12:29:27;;;;;;;47.63;23.70;;;4.40;99.90;;;;;;5025224;28;20214;-73
2021/12/06 12:32:00;;;;;;;52.85;27.58;;;4.30;99.90;;;;;;5019504;28;20275;-73
2021/12/06 12:34:30;;;;;;;49.47;27.33;;;4.30;99.90;;;;;;5025010;28;20283;-73
2021/12/06 12:36:57;;;;;;;42.75;23.58;;;4.20;99.90;;;;;;5027676;28;20228;-75
2021/12/06 12:39:25;;;;;;;53.90;26.73;;;4.20;99.90;;;;;;5020929;28;20196;-75
2021/12/06 12:41:56;;;;;;;47.75;25.85;;;4.20;99.90;;;;;;5022404;28;20728;-75
2021/12/06 12:44:24;;;;;;;49.83;25.15;;;4.30;99.90;;;;;;5020999;28;20611;-73
2021/12/06 12:46:53;;;;;;;42.88;24.77;;;4.30;99.90;;;;;;5025500;28;20283;-74
2021/12/06 12:49:30;;;;;;;47.80;25.75;;;4.30;99.90;;;;;;5025018;28;20665;-72
2021/12/06 12:51:58;;;;;;;49.42;26.30;;;4.20;99.90;;;;;;5011958;28;20208;-73
2021/12/06 12:54:28;;;;;;;47.65;27.98;;;4.30;99.90;;;;;;5028907;28;20262;-73
2021/12/06 12:56:58;;;;;;;46.95;24.45;;;4.30;99.90;;;;;;5031766;28;20219;-74
2021/12/06 12:59:35;;;;;;;53.42;26.95;;;4.30;99.90;;;;;;5028301;28;20279;-74